Wetterdaten: aktuell Dienstag, 01.09.2026 18:00
Datum Zeit Temperatur Temp. +5 cm Temp. -10 cm Feuchte A. Luftdruck Regen Wind Richtung Richtung Zeit Sonne UV-I Solarstrahlg Taupunkt Windchill Windböen
01.09.2026 18:00 23,7 °C 22,8 °C 18,9 °C 54 % 1017,8 hPa 0,0 l/m² 4,5 km/h (1 Bft) NW 305 ° 32 min 0,0 UV-I 84 W/m² 13,8 °C 23,7 °C 8,0 km/h (2 Bft)
01.09.2026 17:00 24,1 °C 26,7 °C 18,9 °C 53 % 1017,9 hPa 0,0 l/m² 3,5 km/h (1 Bft) NW 304 ° 44 min 1,0 UV-I 128 W/m² 13,9 °C 24,1 °C 11,3 km/h (2 Bft)
01.09.2026 16:00 24,6 °C 28,3 °C 18,9 °C 51 % 1018,1 hPa 0,0 l/m² 9,6 km/h (2 Bft) W-NW 302 ° 48 min 1,8 UV-I 309 W/m² 13,8 °C 24,6 °C 17,7 km/h (3 Bft)
01.09.2026 15:00 24,4 °C 31,7 °C 18,3 °C 51 % 1018,2 hPa 0,0 l/m² 12,4 km/h (2 Bft) N 5 ° 58 min 3,1 UV-I 643 W/m² 13,6 °C 24,4 °C 22,5 km/h (4 Bft)
01.09.2026 14:00 23,0 °C 28,9 °C 18,3 °C 55 % 1018,4 hPa 0,0 l/m² 10,5 km/h (2 Bft) N-NO 17 ° 30 min 3,8 UV-I 700 W/m² 13,5 °C 23,0 °C 22,5 km/h (4 Bft)
01.09.2026 13:00 22,5 °C 24,4 °C 17,8 °C 57 % 1018,5 hPa 0,0 l/m² 12,7 km/h (3 Bft) N-NW 347 ° 36 min 1,8 UV-I 190 W/m² 13,5 °C 22,5 °C 24,1 km/h (4 Bft)
01.09.2026 12:00 22,2 °C 26,1 °C 17,8 °C 62 % 1018,3 hPa 0,0 l/m² 5,9 km/h (2 Bft) NW 316 ° 36 min 1,4 UV-I 554 W/m² 14,6 °C 22,2 °C 12,9 km/h (3 Bft)
01.09.2026 11:02 21,0 °C 23,3 °C 17,2 °C 63 % 1018,2 hPa 0,0 l/m² 11,8 km/h (2 Bft) W-NW 295 ° 26 min 1,7 UV-I 320 W/m² 13,7 °C 21,0 °C 20,9 km/h (4 Bft)
01.09.2026 10:02 19,7 °C 19,4 °C 17,2 °C 70 % 1018,2 hPa 0,0 l/m² 12,7 km/h (3 Bft) NW 318 ° 46 min 2,0 UV-I 598 W/m² 14,1 °C 19,7 °C 20,9 km/h (4 Bft)
01.09.2026 09:02 16,8 °C 17,2 °C 17,2 °C 79 % 1017,9 hPa 0,0 l/m² 9,1 km/h (2 Bft) W-NW 302 ° 0 min 0,5 UV-I 104 W/m² 13,1 °C 16,8 °C 14,5 km/h (3 Bft)
01.09.2026 08:02 15,9 °C 15,6 °C 17,2 °C 82 % 1017,6 hPa 0,0 l/m² 8,0 km/h (2 Bft) W 275 ° 0 min 0,0 UV-I 88 W/m² 12,8 °C 15,9 °C 16,1 km/h (3 Bft)
01.09.2026 07:02 14,9 °C 13,9 °C 17,2 °C 85 % 1017,1 hPa 0,0 l/m² 7,3 km/h (2 Bft) W 281 ° 0 min 0,0 UV-I 14 W/m² 12,4 °C 14,9 °C 14,5 km/h (3 Bft)
01.09.2026 06:02 14,2 °C 13,3 °C 17,2 °C 86 % 1016,5 hPa 0,0 l/m² 6,0 km/h (2 Bft) W-SW 258 ° 0 min 0,0 UV-I 0 W/m² 11,9 °C 14,2 °C 11,3 km/h (2 Bft)
01.09.2026 05:02 14,4 °C 13,3 °C 17,2 °C 85 % 1015,9 hPa 0,0 l/m² 3,7 km/h (1 Bft) W 260 ° 0 min 0,0 UV-I 0 W/m² 11,9 °C 14,4 °C 6,4 km/h (2 Bft)
01.09.2026 04:02 14,6 °C 12,8 °C 17,2 °C 84 % 1015,6 hPa 0,0 l/m² 9,0 km/h (2 Bft) W-NW 285 ° 0 min 0,0 UV-I 0 W/m² 11,9 °C 14,6 °C 12,9 km/h (3 Bft)
01.09.2026 03:02 14,6 °C 12,8 °C 17,8 °C 84 % 1015,4 hPa 0,0 l/m² 6,4 km/h (2 Bft) W-SW 251 ° 0 min 0,0 UV-I 0 W/m² 11,9 °C 14,6 °C 11,3 km/h (2 Bft)
01.09.2026 02:02 14,8 °C 13,9 °C 17,8 °C 85 % 1015,1 hPa 0,0 l/m² 7,4 km/h (2 Bft) W 260 ° 0 min 0,0 UV-I 0 W/m² 12,3 °C 14,8 °C 12,9 km/h (3 Bft)
01.09.2026 01:02 14,7 °C 12,8 °C 17,8 °C 85 % 1015,0 hPa 0,0 l/m² 6,4 km/h (2 Bft) W-SW 246 ° 0 min 0,0 UV-I 0 W/m² 12,2 °C 14,7 °C 12,9 km/h (3 Bft)
01.09.2026 00:02 15,2 °C 13,3 °C 17,8 °C 84 % 1014,6 hPa 0,0 l/m² 7,2 km/h (2 Bft) W-SW 245 ° 0 min 0,0 UV-I 0 W/m² 12,5 °C 15,2 °C 12,9 km/h (3 Bft)
01.09.2026 00:00 15,2 °C 13,3 °C 17,8 °C 84 % 1014,6 hPa 0,0 l/m² 6,3 km/h (2 Bft) W-NW 290 ° 0 min 0,0 UV-I 0 W/m² 12,5 °C 15,2 °C 11,3 km/h (2 Bft)
_ Min-Zeit 05:56 05:48 11:56 15:04 00:06 - 16:56 - - - - - 05:50 05:56 17:28
Minimum _ 14,1 °C 12,2 °C 17,2 °C 50 % 1014,6 hPa - 2,6 km/h (1 Bft) - - - - - 11,6 °C 14,1 °C 6,4 km/h (2 Bft)
_ Max-Zeit 16:42 16:40 18:00 06:38 14:02 18:00 12:08 - - 17:48 12:46 12:44 16:40 16:42 12:52
Maximum _ 25,3 °C 33,3 °C 18,9 °C 86 % 1018,5 hPa 0,0 l/m² 17,7 km/h
NW (3 Bft)
- - 2 min 4,2 UV-I 900 W/m² 14,9 °C 25,2 °C 32,2 km/h
W-NW (5 Bft)
Durchschnitt _ 18,7 °C 19,5 °C 17,7 °C 72 % 1017,1 hPa #0,0 l/m² 8,0 km/h (2 Bft) W - #5:56 h 2,0 UV-I 351 W/m² 13,0 °C 18,7 °C 14,5 km/h (3 Bft)